Pagina principale
METAR-TAF:

METAR-TAF

Aeroporti :

Dole, Francia

latitudine: 47-02-34N, longitudine: 005-26-06E, altezza: 196 m

Osservazione

Il bollettino è stato emesso 21 minuti fa, alle 06:30 UTC
Vento 6 kt da sud/sud-ovest
Temperature 3°C
Umidità 100%
Pressione 1011 hPa
Visibilità: 5000 m
Cielo coperto ad un'altezza di 600 ft
foschia

METAR: LFGJ 180630Z AUTO 20006KT 5000 BR OVC006 03/03 Q1011 NOSIG

Ora: 07:51 (06:51 UTC)

Previsione

Il bollettino è stato emesso 1 ora e 51 minuti fa, alle 05:00 UTC
Previsione valida dal 18 alle 06 UTC al 18 alle 15 UTC
Vento 8 kt da sud/sud-ovest
Visibilità: 6000 m
Nuvoloso ad un'altezza di 2500 ft
Temporaneamente
dal 18 alle 06 UTC al 18 alle 12 UTC
Nuvoloso ad un'altezza di 600 ft
pioggia debole

TAF: LFGJ 180500Z 1806/1815 20008KT 6000 BKN025 TEMPO 1806/1812 -RA BKN006

Osservazioni e previsioni meteorologiche di più di 4000 aeroporti (messaggi METAR e TAF).

Le stazioni disponibili sono rappresentate dai dischi gialli e rossi sulla carta.

Puntare il mouse per vedere il nome della stazione.

Clicca sopra per visualizzare le osservazioni e previsioni meteorologiche.

Per cambiare la mappa : fare clic sui pulsanti verdi con una croce nera per ingrandire, il pulsante verde con un trattino per diminuire, o sulla freccia verde per le mappe adiacenti.


METAR-TAF: